Newark, South Dakota
Current Conditions -  °F | °C
As of 2:35 AM on Tuesday 27 Jan 2015 (Local Time) from KGWR Reporting Station
Clear Clear  
Wind Chill: 28°   Ceiling: Unl
Heat Index: NA   Visibility: 10mi
Dew Point: 30°   Wind: 0mph
Humidity: NA   Direction: NA
Pressure: 30.03"   Gusts: NA
Location:  45.8144°N, 97.7089°W
Report Text: KGWR 270835Z AUTO 00000KT 10SM CLR M02/M01 A3003 RMK A01 P000
Loading
Personal Weather Stations






























Interactive Weather Map New forecast layout! Learn more

10-Day Weather Forecast

Advertisements
Track Severe Weather on mobile